sensor_id;sensor_type;location;lat;lon;timestamp;temperature;humidity
81902;DHT22;71369;50.796;3.290;2023-07-29T00:00:40;17.10;89.90
81902;DHT22;71369;50.796;3.290;2023-07-29T00:03:06;17.20;89.30
81902;DHT22;71369;50.796;3.290;2023-07-29T00:05:31;17.10;88.90
81902;DHT22;71369;50.796;3.290;2023-07-29T00:07:57;17.10;88.80
81902;DHT22;71369;50.796;3.290;2023-07-29T00:10:23;17.20;88.60
81902;DHT22;71369;50.796;3.290;2023-07-29T00:12:48;17.20;88.60
81902;DHT22;71369;50.796;3.290;2023-07-29T00:15:14;17.20;88.40
81902;DHT22;71369;50.796;3.290;2023-07-29T00:17:40;17.10;88.50
81902;DHT22;71369;50.796;3.290;2023-07-29T00:20:06;17.20;88.30
81902;DHT22;71369;50.796;3.290;2023-07-29T00:22:32;17.20;89.40
81902;DHT22;71369;50.796;3.290;2023-07-29T00:24:58;17.20;88.10
81902;DHT22;71369;50.796;3.290;2023-07-29T00:27:25;17.30;88.00
81902;DHT22;71369;50.796;3.290;2023-07-29T00:29:51;17.30;87.60
81902;DHT22;71369;50.796;3.290;2023-07-29T00:32:17;17.30;87.40
81902;DHT22;71369;50.796;3.290;2023-07-29T00:34:43;17.30;87.20
81902;DHT22;71369;50.796;3.290;2023-07-29T00:37:09;17.30;87.50
81902;DHT22;71369;50.796;3.290;2023-07-29T00:39:36;17.30;87.40
81902;DHT22;71369;50.796;3.290;2023-07-29T00:42:05;17.30;87.50
81902;DHT22;71369;50.796;3.290;2023-07-29T00:44:31;17.20;87.30
81902;DHT22;71369;50.796;3.290;2023-07-29T00:47:01;17.20;87.80
81902;DHT22;71369;50.796;3.290;2023-07-29T00:49:27;17.10;88.10
81902;DHT22;71369;50.796;3.290;2023-07-29T00:51:53;17.10;87.60
81902;DHT22;71369;50.796;3.290;2023-07-29T00:54:19;17.10;87.90
81902;DHT22;71369;50.796;3.290;2023-07-29T00:56:45;17.10;87.80
81902;DHT22;71369;50.796;3.290;2023-07-29T00:59:11;17.10;88.00
81902;DHT22;71369;50.796;3.290;2023-07-29T01:01:37;17.10;87.70
81902;DHT22;71369;50.796;3.290;2023-07-29T01:04:03;17.10;88.00
81902;DHT22;71369;50.796;3.290;2023-07-29T01:09:42;17.00;89.00
81902;DHT22;71369;50.796;3.290;2023-07-29T01:12:12;16.80;89.30
81902;DHT22;71369;50.796;3.290;2023-07-29T01:14:51;16.90;89.10
81902;DHT22;71369;50.796;3.290;2023-07-29T01:17:35;16.90;89.20
81902;DHT22;71369;50.796;3.290;2023-07-29T01:20:11;16.90;89.10
81902;DHT22;71369;50.796;3.290;2023-07-29T01:22:37;16.90;89.20
81902;DHT22;71369;50.796;3.290;2023-07-29T01:25:05;16.90;89.10
81902;DHT22;71369;50.796;3.290;2023-07-29T01:27:31;16.90;89.90
81902;DHT22;71369;50.796;3.290;2023-07-29T01:29:58;16.90;88.80
81902;DHT22;71369;50.796;3.290;2023-07-29T01:32:59;16.90;89.00
81902;DHT22;71369;50.796;3.290;2023-07-29T01:38:05;16.70;89.70
81902;DHT22;71369;50.796;3.290;2023-07-29T01:40:33;16.70;89.60
81902;DHT22;71369;50.796;3.290;2023-07-29T01:42:59;16.80;89.50
81902;DHT22;71369;50.796;3.290;2023-07-29T01:45:25;16.70;89.20
81902;DHT22;71369;50.796;3.290;2023-07-29T01:47:51;16.80;88.90
81902;DHT22;71369;50.796;3.290;2023-07-29T01:50:17;16.80;89.10
81902;DHT22;71369;50.796;3.290;2023-07-29T01:52:42;16.80;89.00
81902;DHT22;71369;50.796;3.290;2023-07-29T01:55:08;16.80;89.10
81902;DHT22;71369;50.796;3.290;2023-07-29T01:57:34;16.70;89.20
81902;DHT22;71369;50.796;3.290;2023-07-29T02:00:00;16.70;89.20
81902;DHT22;71369;50.796;3.290;2023-07-29T02:02:25;16.80;89.10
81902;DHT22;71369;50.796;3.290;2023-07-29T02:04:51;16.80;89.00
81902;DHT22;71369;50.796;3.290;2023-07-29T02:07:20;16.70;89.10
81902;DHT22;71369;50.796;3.290;2023-07-29T02:09:46;16.80;89.10
81902;DHT22;71369;50.796;3.290;2023-07-29T02:12:11;16.80;88.60
81902;DHT22;71369;50.796;3.290;2023-07-29T02:14:37;16.80;88.20
81902;DHT22;71369;50.796;3.290;2023-07-29T02:17:03;16.80;88.40
81902;DHT22;71369;50.796;3.290;2023-07-29T02:19:28;16.70;88.70
81902;DHT22;71369;50.796;3.290;2023-07-29T02:21:54;16.70;89.00
81902;DHT22;71369;50.796;3.290;2023-07-29T02:24:20;16.60;89.10
81902;DHT22;71369;50.796;3.290;2023-07-29T02:26:45;16.60;89.50
81902;DHT22;71369;50.796;3.290;2023-07-29T02:29:11;16.60;89.40
81902;DHT22;71369;50.796;3.290;2023-07-29T02:31:37;16.60;89.50
81902;DHT22;71369;50.796;3.290;2023-07-29T02:34:04;16.60;89.50
81902;DHT22;71369;50.796;3.290;2023-07-29T02:36:29;16.50;89.40
81902;DHT22;71369;50.796;3.290;2023-07-29T02:38:55;16.50;89.70
81902;DHT22;71369;50.796;3.290;2023-07-29T02:41:21;16.50;90.00
81902;DHT22;71369;50.796;3.290;2023-07-29T02:43:51;16.50;90.00
81902;DHT22;71369;50.796;3.290;2023-07-29T02:46:17;16.40;90.20
81902;DHT22;71369;50.796;3.290;2023-07-29T02:48:44;16.30;90.30
81902;DHT22;71369;50.796;3.290;2023-07-29T02:51:10;16.30;90.10
81902;DHT22;71369;50.796;3.290;2023-07-29T02:53:35;16.30;90.10
81902;DHT22;71369;50.796;3.290;2023-07-29T02:56:04;16.40;90.30
81902;DHT22;71369;50.796;3.290;2023-07-29T02:58:30;16.30;90.60
81902;DHT22;71369;50.796;3.290;2023-07-29T03:01:03;16.40;90.60
81902;DHT22;71369;50.796;3.290;2023-07-29T03:03:29;16.30;90.70
81902;DHT22;71369;50.796;3.290;2023-07-29T03:06:10;16.30;90.80
81902;DHT22;71369;50.796;3.290;2023-07-29T03:08:36;16.30;90.80
81902;DHT22;71369;50.796;3.290;2023-07-29T03:11:10;16.30;90.70
81902;DHT22;71369;50.796;3.290;2023-07-29T03:13:36;16.40;90.70
81902;DHT22;71369;50.796;3.290;2023-07-29T03:16:12;16.30;91.00
81902;DHT22;71369;50.796;3.290;2023-07-29T03:18:39;16.40;90.90
81902;DHT22;71369;50.796;3.290;2023-07-29T03:21:05;16.40;90.80
81902;DHT22;71369;50.796;3.290;2023-07-29T03:23:33;16.40;90.80
81902;DHT22;71369;50.796;3.290;2023-07-29T03:25:59;16.40;90.80
81902;DHT22;71369;50.796;3.290;2023-07-29T03:28:27;16.40;90.70
81902;DHT22;71369;50.796;3.290;2023-07-29T03:30:54;16.40;90.60
81902;DHT22;71369;50.796;3.290;2023-07-29T03:33:20;16.40;90.70
81902;DHT22;71369;50.796;3.290;2023-07-29T03:35:45;16.40;90.90
81902;DHT22;71369;50.796;3.290;2023-07-29T03:38:11;16.40;90.90
81902;DHT22;71369;50.796;3.290;2023-07-29T03:40:41;16.40;90.90
81902;DHT22;71369;50.796;3.290;2023-07-29T03:43:07;16.40;90.90
81902;DHT22;71369;50.796;3.290;2023-07-29T03:45:33;16.50;90.70
81902;DHT22;71369;50.796;3.290;2023-07-29T03:47:59;16.60;90.60
81902;DHT22;71369;50.796;3.290;2023-07-29T03:50:26;16.60;90.50
81902;DHT22;71369;50.796;3.290;2023-07-29T03:52:51;16.60;90.50
81902;DHT22;71369;50.796;3.290;2023-07-29T03:55:17;16.60;90.50
81902;DHT22;71369;50.796;3.290;2023-07-29T03:57:43;16.70;90.50
81902;DHT22;71369;50.796;3.290;2023-07-29T04:00:09;16.80;90.40
81902;DHT22;71369;50.796;3.290;2023-07-29T04:02:34;16.70;90.30
81902;DHT22;71369;50.796;3.290;2023-07-29T04:05:03;16.80;90.20
81902;DHT22;71369;50.796;3.290;2023-07-29T04:07:29;16.80;90.20
81902;DHT22;71369;50.796;3.290;2023-07-29T04:09:55;16.70;90.20
81902;DHT22;71369;50.796;3.290;2023-07-29T04:12:21;16.70;90.30
81902;DHT22;71369;50.796;3.290;2023-07-29T04:14:47;16.70;90.20
81902;DHT22;71369;50.796;3.290;2023-07-29T04:17:12;16.60;90.20
81902;DHT22;71369;50.796;3.290;2023-07-29T04:19:38;16.60;90.40
81902;DHT22;71369;50.796;3.290;2023-07-29T04:22:04;16.50;90.50
81902;DHT22;71369;50.796;3.290;2023-07-29T04:24:30;16.50;91.10
81902;DHT22;71369;50.796;3.290;2023-07-29T04:26:55;16.50;90.70
81902;DHT22;71369;50.796;3.290;2023-07-29T04:29:21;16.50;90.50
81902;DHT22;71369;50.796;3.290;2023-07-29T04:31:49;16.50;90.40
81902;DHT22;71369;50.796;3.290;2023-07-29T04:34:15;16.50;90.50
81902;DHT22;71369;50.796;3.290;2023-07-29T04:36:41;16.40;90.50
81902;DHT22;71369;50.796;3.290;2023-07-29T04:39:06;16.40;90.50
81902;DHT22;71369;50.796;3.290;2023-07-29T04:41:33;16.40;90.50
81902;DHT22;71369;50.796;3.290;2023-07-29T04:43:58;16.40;90.60
81902;DHT22;71369;50.796;3.290;2023-07-29T04:46:24;16.40;90.60
81902;DHT22;71369;50.796;3.290;2023-07-29T04:48:50;16.40;90.60
81902;DHT22;71369;50.796;3.290;2023-07-29T04:51:15;16.40;90.70
81902;DHT22;71369;50.796;3.290;2023-07-29T04:53:41;16.30;90.80
81902;DHT22;71369;50.796;3.290;2023-07-29T04:56:07;16.30;91.00
81902;DHT22;71369;50.796;3.290;2023-07-29T04:58:32;16.30;91.00
81902;DHT22;71369;50.796;3.290;2023-07-29T05:01:01;16.40;91.00
81902;DHT22;71369;50.796;3.290;2023-07-29T05:03:27;16.50;90.80
81902;DHT22;71369;50.796;3.290;2023-07-29T05:05:53;16.60;90.70
81902;DHT22;71369;50.796;3.290;2023-07-29T05:08:21;16.70;90.50
81902;DHT22;71369;50.796;3.290;2023-07-29T05:10:50;16.80;90.20
81902;DHT22;71369;50.796;3.290;2023-07-29T05:13:17;16.90;90.10
81902;DHT22;71369;50.796;3.290;2023-07-29T05:15:43;17.00;90.00
81902;DHT22;71369;50.796;3.290;2023-07-29T05:18:09;17.20;89.30
81902;DHT22;71369;50.796;3.290;2023-07-29T05:20:34;17.20;89.10
81902;DHT22;71369;50.796;3.290;2023-07-29T05:23:00;17.30;89.30
81902;DHT22;71369;50.796;3.290;2023-07-29T05:25:26;17.40;89.30
81902;DHT22;71369;50.796;3.290;2023-07-29T05:27:52;17.70;88.30
81902;DHT22;71369;50.796;3.290;2023-07-29T05:30:18;17.80;87.00
81902;DHT22;71369;50.796;3.290;2023-07-29T05:32:44;17.90;86.50
81902;DHT22;71369;50.796;3.290;2023-07-29T05:35:10;17.90;86.70
81902;DHT22;71369;50.796;3.290;2023-07-29T05:37:39;17.90;86.70
81902;DHT22;71369;50.796;3.290;2023-07-29T05:40:08;17.90;86.60
81902;DHT22;71369;50.796;3.290;2023-07-29T05:42:36;18.00;86.80
81902;DHT22;71369;50.796;3.290;2023-07-29T05:45:02;18.20;87.20
81902;DHT22;71369;50.796;3.290;2023-07-29T05:47:28;18.50;85.50
81902;DHT22;71369;50.796;3.290;2023-07-29T05:49:53;18.60;84.80
81902;DHT22;71369;50.796;3.290;2023-07-29T05:52:20;18.70;83.60
81902;DHT22;71369;50.796;3.290;2023-07-29T05:54:45;19.00;83.00
81902;DHT22;71369;50.796;3.290;2023-07-29T05:57:12;19.20;81.60
81902;DHT22;71369;50.796;3.290;2023-07-29T05:59:38;19.30;80.90
81902;DHT22;71369;50.796;3.290;2023-07-29T06:02:04;19.40;79.60
81902;DHT22;71369;50.796;3.290;2023-07-29T06:04:29;19.40;80.30
81902;DHT22;71369;50.796;3.290;2023-07-29T06:06:56;19.60;79.50
81902;DHT22;71369;50.796;3.290;2023-07-29T06:09:22;19.80;78.50
81902;DHT22;71369;50.796;3.290;2023-07-29T06:11:48;20.00;78.00
81902;DHT22;71369;50.796;3.290;2023-07-29T06:14:14;20.10;76.80
81902;DHT22;71369;50.796;3.290;2023-07-29T06:16:40;20.00;76.30
81902;DHT22;71369;50.796;3.290;2023-07-29T06:19:06;20.00;76.00
81902;DHT22;71369;50.796;3.290;2023-07-29T06:21:34;19.90;76.50
81902;DHT22;71369;50.796;3.290;2023-07-29T06:24:00;19.90;77.50
81902;DHT22;71369;50.796;3.290;2023-07-29T06:26:26;20.00;76.40
81902;DHT22;71369;50.796;3.290;2023-07-29T06:28:52;20.00;76.30
81902;DHT22;71369;50.796;3.290;2023-07-29T06:31:17;20.00;76.10
81902;DHT22;71369;50.796;3.290;2023-07-29T06:33:43;20.20;76.10
81902;DHT22;71369;50.796;3.290;2023-07-29T06:36:09;20.40;75.50
81902;DHT22;71369;50.796;3.290;2023-07-29T06:38:34;20.50;75.10
81902;DHT22;71369;50.796;3.290;2023-07-29T06:41:00;20.60;74.80
81902;DHT22;71369;50.796;3.290;2023-07-29T06:43:26;20.60;74.40
81902;DHT22;71369;50.796;3.290;2023-07-29T06:45:51;20.50;74.50
81902;DHT22;71369;50.796;3.290;2023-07-29T06:48:17;20.50;74.30
81902;DHT22;71369;50.796;3.290;2023-07-29T06:50:44;20.60;74.40
81902;DHT22;71369;50.796;3.290;2023-07-29T06:53:10;20.80;74.30
81902;DHT22;71369;50.796;3.290;2023-07-29T06:55:35;20.90;72.30
81902;DHT22;71369;50.796;3.290;2023-07-29T06:58:01;21.00;72.60
81902;DHT22;71369;50.796;3.290;2023-07-29T07:00:27;21.00;73.30
81902;DHT22;71369;50.796;3.290;2023-07-29T07:02:53;21.20;73.10
81902;DHT22;71369;50.796;3.290;2023-07-29T07:05:19;21.60;71.50
81902;DHT22;71369;50.796;3.290;2023-07-29T07:07:44;22.30;69.90
81902;DHT22;71369;50.796;3.290;2023-07-29T07:10:10;22.90;66.10
81902;DHT22;71369;50.796;3.290;2023-07-29T07:12:36;23.40;64.90
81902;DHT22;71369;50.796;3.290;2023-07-29T07:15:02;23.60;64.10
81902;DHT22;71369;50.796;3.290;2023-07-29T07:17:28;24.40;62.30
81902;DHT22;71369;50.796;3.290;2023-07-29T07:19:53;25.30;59.90
81902;DHT22;71369;50.796;3.290;2023-07-29T07:22:19;25.60;58.00
81902;DHT22;71369;50.796;3.290;2023-07-29T07:24:44;25.40;58.30
81902;DHT22;71369;50.796;3.290;2023-07-29T07:27:10;25.60;57.10
81902;DHT22;71369;50.796;3.290;2023-07-29T07:29:36;26.00;57.00
81902;DHT22;71369;50.796;3.290;2023-07-29T07:32:02;26.20;55.70
81902;DHT22;71369;50.796;3.290;2023-07-29T07:34:27;26.10;55.90
81902;DHT22;71369;50.796;3.290;2023-07-29T07:36:53;25.90;55.30
81902;DHT22;71369;50.796;3.290;2023-07-29T07:39:19;25.90;56.10
81902;DHT22;71369;50.796;3.290;2023-07-29T07:41:47;25.70;56.50
81902;DHT22;71369;50.796;3.290;2023-07-29T07:44:13;26.00;55.00
81902;DHT22;71369;50.796;3.290;2023-07-29T07:46:41;26.10;54.40
81902;DHT22;71369;50.796;3.290;2023-07-29T07:49:07;26.30;53.60
81902;DHT22;71369;50.796;3.290;2023-07-29T07:51:32;26.30;54.00
81902;DHT22;71369;50.796;3.290;2023-07-29T07:53:58;26.20;55.30
81902;DHT22;71369;50.796;3.290;2023-07-29T07:56:24;26.10;55.30
81902;DHT22;71369;50.796;3.290;2023-07-29T07:58:49;25.80;55.40
81902;DHT22;71369;50.796;3.290;2023-07-29T08:01:15;25.50;56.10
81902;DHT22;71369;50.796;3.290;2023-07-29T08:03:41;24.90;57.30
81902;DHT22;71369;50.796;3.290;2023-07-29T08:06:06;24.60;57.70
81902;DHT22;71369;50.796;3.290;2023-07-29T08:08:32;24.50;59.30
81902;DHT22;71369;50.796;3.290;2023-07-29T08:10:58;24.70;58.40
81902;DHT22;71369;50.796;3.290;2023-07-29T08:13:24;24.60;58.70
81902;DHT22;71369;50.796;3.290;2023-07-29T08:15:51;24.80;58.50
81902;DHT22;71369;50.796;3.290;2023-07-29T08:18:17;24.70;56.90
81902;DHT22;71369;50.796;3.290;2023-07-29T08:23:20;25.20;58.10
81902;DHT22;71369;50.796;3.290;2023-07-29T08:25:54;25.50;56.10
81902;DHT22;71369;50.796;3.290;2023-07-29T08:28:22;25.20;58.20
81902;DHT22;71369;50.796;3.290;2023-07-29T08:30:48;24.90;57.70
81902;DHT22;71369;50.796;3.290;2023-07-29T08:33:14;24.40;58.80
81902;DHT22;71369;50.796;3.290;2023-07-29T08:35:40;24.00;59.70
81902;DHT22;71369;50.796;3.290;2023-07-29T08:38:06;23.90;60.00
81902;DHT22;71369;50.796;3.290;2023-07-29T08:40:34;23.90;58.90
81902;DHT22;71369;50.796;3.290;2023-07-29T08:43:04;24.00;60.00
81902;DHT22;71369;50.796;3.290;2023-07-29T08:45:34;23.90;60.10
81902;DHT22;71369;50.796;3.290;2023-07-29T08:48:02;23.70;60.40
81902;DHT22;71369;50.796;3.290;2023-07-29T08:50:32;23.40;60.90
81902;DHT22;71369;50.796;3.290;2023-07-29T08:52:59;23.60;61.40
81902;DHT22;71369;50.796;3.290;2023-07-29T08:55:26;24.10;61.30
81902;DHT22;71369;50.796;3.290;2023-07-29T08:57:52;24.20;59.30
81902;DHT22;71369;50.796;3.290;2023-07-29T09:00:19;24.00;59.30
81902;DHT22;71369;50.796;3.290;2023-07-29T09:02:45;24.30;59.10
81902;DHT22;71369;50.796;3.290;2023-07-29T09:05:10;24.60;59.20
81902;DHT22;71369;50.796;3.290;2023-07-29T09:07:36;24.70;58.70
81902;DHT22;71369;50.796;3.290;2023-07-29T09:10:04;24.20;59.90
81902;DHT22;71369;50.796;3.290;2023-07-29T09:12:30;24.10;61.40
81902;DHT22;71369;50.796;3.290;2023-07-29T09:14:55;24.00;61.20
81902;DHT22;71369;50.796;3.290;2023-07-29T09:17:21;23.90;62.30
81902;DHT22;71369;50.796;3.290;2023-07-29T09:19:48;23.80;61.70
81902;DHT22;71369;50.796;3.290;2023-07-29T09:22:19;23.70;62.70
81902;DHT22;71369;50.796;3.290;2023-07-29T09:24:46;23.80;63.70
81902;DHT22;71369;50.796;3.290;2023-07-29T09:27:25;23.60;63.70
81902;DHT22;71369;50.796;3.290;2023-07-29T09:29:52;22.80;66.40
81902;DHT22;71369;50.796;3.290;2023-07-29T09:32:22;22.50;68.00
81902;DHT22;71369;50.796;3.290;2023-07-29T09:34:48;22.00;69.20
81902;DHT22;71369;50.796;3.290;2023-07-29T09:37:23;21.80;70.80
81902;DHT22;71369;50.796;3.290;2023-07-29T09:39:50;21.70;71.20
81902;DHT22;71369;50.796;3.290;2023-07-29T09:42:20;21.70;72.10
81902;DHT22;71369;50.796;3.290;2023-07-29T09:44:48;21.70;71.60
81902;DHT22;71369;50.796;3.290;2023-07-29T09:47:22;21.30;73.70
81902;DHT22;71369;50.796;3.290;2023-07-29T09:49:49;20.90;77.00
81902;DHT22;71369;50.796;3.290;2023-07-29T09:52:19;20.60;80.40
81902;DHT22;71369;50.796;3.290;2023-07-29T09:54:47;20.70;82.30
81902;DHT22;71369;50.796;3.290;2023-07-29T09:57:18;21.20;81.60
81902;DHT22;71369;50.796;3.290;2023-07-29T09:59:56;22.20;80.00
81902;DHT22;71369;50.796;3.290;2023-07-29T10:02:24;22.80;77.10
81902;DHT22;71369;50.796;3.290;2023-07-29T10:04:52;23.00;73.10
81902;DHT22;71369;50.796;3.290;2023-07-29T10:07:18;23.10;73.00
81902;DHT22;71369;50.796;3.290;2023-07-29T10:09:45;22.80;71.80
81902;DHT22;71369;50.796;3.290;2023-07-29T10:12:13;22.60;72.10
81902;DHT22;71369;50.796;3.290;2023-07-29T10:14:39;22.40;72.70
81902;DHT22;71369;50.796;3.290;2023-07-29T10:17:06;22.00;72.60
81902;DHT22;71369;50.796;3.290;2023-07-29T10:19:31;21.80;73.80
81902;DHT22;71369;50.796;3.290;2023-07-29T10:21:59;21.90;71.60
81902;DHT22;71369;50.796;3.290;2023-07-29T10:24:30;22.00;73.60
81902;DHT22;71369;50.796;3.290;2023-07-29T10:26:59;22.80;74.00
81902;DHT22;71369;50.796;3.290;2023-07-29T10:29:30;23.60;68.10
81902;DHT22;71369;50.796;3.290;2023-07-29T10:31:57;23.80;66.50
81902;DHT22;71369;50.796;3.290;2023-07-29T10:34:26;23.70;67.20
81902;DHT22;71369;50.796;3.290;2023-07-29T10:36:53;23.50;64.70
81902;DHT22;71369;50.796;3.290;2023-07-29T10:39:20;23.10;66.20
81902;DHT22;71369;50.796;3.290;2023-07-29T10:42:03;23.00;67.70
81902;DHT22;71369;50.796;3.290;2023-07-29T10:44:56;22.80;68.40
81902;DHT22;71369;50.796;3.290;2023-07-29T10:49:54;22.10;69.90
81902;DHT22;71369;50.796;3.290;2023-07-29T10:55:00;22.60;68.90
81902;DHT22;71369;50.796;3.290;2023-07-29T10:57:32;22.80;68.60
81902;DHT22;71369;50.796;3.290;2023-07-29T10:59:59;22.80;69.30
81902;DHT22;71369;50.796;3.290;2023-07-29T11:02:35;23.00;66.20
81902;DHT22;71369;50.796;3.290;2023-07-29T11:05:15;23.00;66.60
81902;DHT22;71369;50.796;3.290;2023-07-29T11:07:48;23.20;67.70
81902;DHT22;71369;50.796;3.290;2023-07-29T11:10:14;23.70;65.30
81902;DHT22;71369;50.796;3.290;2023-07-29T11:12:51;24.20;66.00
81902;DHT22;71369;50.796;3.290;2023-07-29T11:17:56;25.00;59.00
81902;DHT22;71369;50.796;3.290;2023-07-29T11:22:54;24.70;60.70
81902;DHT22;71369;50.796;3.290;2023-07-29T11:25:22;25.10;59.30
81902;DHT22;71369;50.796;3.290;2023-07-29T11:27:48;24.90;60.90
81902;DHT22;71369;50.796;3.290;2023-07-29T11:30:15;24.90;59.40
81902;DHT22;71369;50.796;3.290;2023-07-29T11:32:43;25.20;59.00
81902;DHT22;71369;50.796;3.290;2023-07-29T11:35:14;25.10;58.50
81902;DHT22;71369;50.796;3.290;2023-07-29T11:37:41;25.20;58.80
81902;DHT22;71369;50.796;3.290;2023-07-29T11:40:08;25.70;58.70
81902;DHT22;71369;50.796;3.290;2023-07-29T11:42:38;26.00;56.60
81902;DHT22;71369;50.796;3.290;2023-07-29T11:45:04;26.00;56.70
81902;DHT22;71369;50.796;3.290;2023-07-29T11:47:32;26.00;57.10
81902;DHT22;71369;50.796;3.290;2023-07-29T11:50:02;25.80;57.00
81902;DHT22;71369;50.796;3.290;2023-07-29T11:52:28;25.40;57.40
81902;DHT22;71369;50.796;3.290;2023-07-29T11:54:54;25.00;59.40
81902;DHT22;71369;50.796;3.290;2023-07-29T11:57:20;24.50;62.00
81902;DHT22;71369;50.796;3.290;2023-07-29T11:59:47;23.70;63.30
81902;DHT22;71369;50.796;3.290;2023-07-29T12:02:23;23.30;65.80
81902;DHT22;71369;50.796;3.290;2023-07-29T12:04:49;23.00;71.50
81902;DHT22;71369;50.796;3.290;2023-07-29T12:07:17;22.70;74.90
81902;DHT22;71369;50.796;3.290;2023-07-29T12:09:43;22.90;74.90
81902;DHT22;71369;50.796;3.290;2023-07-29T12:12:09;23.30;74.80
81902;DHT22;71369;50.796;3.290;2023-07-29T12:14:35;23.70;71.10
81902;DHT22;71369;50.796;3.290;2023-07-29T12:17:02;24.50;71.10
81902;DHT22;71369;50.796;3.290;2023-07-29T12:21:59;24.30;66.80
81902;DHT22;71369;50.796;3.290;2023-07-29T12:24:24;24.60;68.70
81902;DHT22;71369;50.796;3.290;2023-07-29T12:26:51;25.50;63.50
81902;DHT22;71369;50.796;3.290;2023-07-29T12:29:18;26.30;62.00
81902;DHT22;71369;50.796;3.290;2023-07-29T12:31:47;27.30;59.40
81902;DHT22;71369;50.796;3.290;2023-07-29T12:34:20;27.90;54.30
81902;DHT22;71369;50.796;3.290;2023-07-29T12:36:50;27.10;56.40
81902;DHT22;71369;50.796;3.290;2023-07-29T12:39:24;26.60;57.10
81902;DHT22;71369;50.796;3.290;2023-07-29T12:41:54;26.20;59.50
81902;DHT22;71369;50.796;3.290;2023-07-29T12:44:20;25.40;64.60
81902;DHT22;71369;50.796;3.290;2023-07-29T12:46:46;25.40;66.30
81902;DHT22;71369;50.796;3.290;2023-07-29T12:49:11;26.00;66.80
81902;DHT22;71369;50.796;3.290;2023-07-29T12:51:37;26.30;63.50
81902;DHT22;71369;50.796;3.290;2023-07-29T12:54:04;26.50;61.10
81902;DHT22;71369;50.796;3.290;2023-07-29T12:56:32;26.10;61.00
81902;DHT22;71369;50.796;3.290;2023-07-29T12:58:58;25.60;60.10
81902;DHT22;71369;50.796;3.290;2023-07-29T13:01:25;25.30;61.50
81902;DHT22;71369;50.796;3.290;2023-07-29T13:03:51;25.20;62.20
81902;DHT22;71369;50.796;3.290;2023-07-29T13:06:19;24.80;63.60
81902;DHT22;71369;50.796;3.290;2023-07-29T13:08:45;24.30;63.90
81902;DHT22;71369;50.796;3.290;2023-07-29T13:11:11;23.40;67.30
81902;DHT22;71369;50.796;3.290;2023-07-29T13:13:37;22.60;72.00
81902;DHT22;71369;50.796;3.290;2023-07-29T13:16:03;22.00;76.20
81902;DHT22;71369;50.796;3.290;2023-07-29T13:18:29;21.70;79.00
81902;DHT22;71369;50.796;3.290;2023-07-29T13:20:55;21.60;79.00
81902;DHT22;71369;50.796;3.290;2023-07-29T13:23:21;21.50;81.20
81902;DHT22;71369;50.796;3.290;2023-07-29T13:25:47;21.70;81.10
81902;DHT22;71369;50.796;3.290;2023-07-29T13:28:13;21.80;80.30
81902;DHT22;71369;50.796;3.290;2023-07-29T13:30:41;22.10;80.20
81902;DHT22;71369;50.796;3.290;2023-07-29T13:33:08;22.40;79.80
81902;DHT22;71369;50.796;3.290;2023-07-29T13:35:34;22.80;78.80
81902;DHT22;71369;50.796;3.290;2023-07-29T13:38:00;22.70;75.30
81902;DHT22;71369;50.796;3.290;2023-07-29T13:40:26;22.80;75.00
81902;DHT22;71369;50.796;3.290;2023-07-29T13:42:53;23.20;74.20
81902;DHT22;71369;50.796;3.290;2023-07-29T13:45:19;23.80;72.30
81902;DHT22;71369;50.796;3.290;2023-07-29T13:47:44;24.10;69.50
81902;DHT22;71369;50.796;3.290;2023-07-29T13:50:10;24.70;69.40
81902;DHT22;71369;50.796;3.290;2023-07-29T13:52:37;25.00;67.20
81902;DHT22;71369;50.796;3.290;2023-07-29T13:55:04;24.90;64.30
81902;DHT22;71369;50.796;3.290;2023-07-29T13:57:30;25.10;65.90
81902;DHT22;71369;50.796;3.290;2023-07-29T13:59:56;25.10;63.70
81902;DHT22;71369;50.796;3.290;2023-07-29T14:02:21;24.30;66.60
81902;DHT22;71369;50.796;3.290;2023-07-29T14:04:47;24.90;65.30
81902;DHT22;71369;50.796;3.290;2023-07-29T14:07:13;24.70;62.60
81902;DHT22;71369;50.796;3.290;2023-07-29T14:09:38;24.40;63.70
81902;DHT22;71369;50.796;3.290;2023-07-29T14:12:04;23.90;66.10
81902;DHT22;71369;50.796;3.290;2023-07-29T14:14:31;24.00;67.00
81902;DHT22;71369;50.796;3.290;2023-07-29T14:16:57;24.10;65.30
81902;DHT22;71369;50.796;3.290;2023-07-29T14:19:23;23.80;66.20
81902;DHT22;71369;50.796;3.290;2023-07-29T14:21:49;23.80;68.40
81902;DHT22;71369;50.796;3.290;2023-07-29T14:24:15;23.80;68.50
81902;DHT22;71369;50.796;3.290;2023-07-29T14:26:41;23.70;68.90
81902;DHT22;71369;50.796;3.290;2023-07-29T14:29:07;23.80;68.20
81902;DHT22;71369;50.796;3.290;2023-07-29T14:31:33;23.70;65.30
81902;DHT22;71369;50.796;3.290;2023-07-29T14:33:59;23.70;66.80
81902;DHT22;71369;50.796;3.290;2023-07-29T14:36:25;23.40;65.40
81902;DHT22;71369;50.796;3.290;2023-07-29T14:38:51;23.50;66.30
81902;DHT22;71369;50.796;3.290;2023-07-29T14:41:17;23.30;66.00
81902;DHT22;71369;50.796;3.290;2023-07-29T14:43:43;23.40;65.50
81902;DHT22;71369;50.796;3.290;2023-07-29T14:46:08;23.40;65.80
81902;DHT22;71369;50.796;3.290;2023-07-29T14:48:34;23.60;64.20
81902;DHT22;71369;50.796;3.290;2023-07-29T14:51:00;23.70;65.90
81902;DHT22;71369;50.796;3.290;2023-07-29T14:53:26;23.80;62.50
81902;DHT22;71369;50.796;3.290;2023-07-29T14:55:51;23.80;62.80
81902;DHT22;71369;50.796;3.290;2023-07-29T14:58:17;23.70;62.40
81902;DHT22;71369;50.796;3.290;2023-07-29T15:00:43;23.70;63.10
81902;DHT22;71369;50.796;3.290;2023-07-29T15:03:09;23.70;60.60
81902;DHT22;71369;50.796;3.290;2023-07-29T15:05:34;23.60;59.80
81902;DHT22;71369;50.796;3.290;2023-07-29T15:08:00;23.40;61.80
81902;DHT22;71369;50.796;3.290;2023-07-29T15:10:26;23.50;62.70
81902;DHT22;71369;50.796;3.290;2023-07-29T15:12:52;23.60;60.40
81902;DHT22;71369;50.796;3.290;2023-07-29T15:15:18;23.60;59.60
81902;DHT22;71369;50.796;3.290;2023-07-29T15:17:44;23.40;57.60
81902;DHT22;71369;50.796;3.290;2023-07-29T15:20:10;23.20;58.20
81902;DHT22;71369;50.796;3.290;2023-07-29T15:22:36;23.20;58.60
81902;DHT22;71369;50.796;3.290;2023-07-29T15:25:02;23.20;57.50
81902;DHT22;71369;50.796;3.290;2023-07-29T15:27:28;23.10;56.40
81902;DHT22;71369;50.796;3.290;2023-07-29T15:29:55;23.10;55.20
81902;DHT22;71369;50.796;3.290;2023-07-29T15:32:21;22.90;56.60
81902;DHT22;71369;50.796;3.290;2023-07-29T15:34:50;22.90;58.00
81902;DHT22;71369;50.796;3.290;2023-07-29T15:37:16;23.00;53.00
81902;DHT22;71369;50.796;3.290;2023-07-29T15:39:42;22.90;52.20
81902;DHT22;71369;50.796;3.290;2023-07-29T15:42:07;22.70;53.30
81902;DHT22;71369;50.796;3.290;2023-07-29T15:44:33;22.70;52.90
81902;DHT22;71369;50.796;3.290;2023-07-29T15:46:59;22.60;54.20
81902;DHT22;71369;50.796;3.290;2023-07-29T15:49:25;22.60;53.80